createdAt,value
2017-08-25T00:00:28.476Z,0
2017-08-25T00:01:28.784Z,0
2017-08-25T00:02:29.427Z,0
2017-08-25T00:03:28.445Z,0
2017-08-25T00:04:29.070Z,0
2017-08-25T00:05:28.422Z,0
2017-08-25T00:06:28.740Z,0
2017-08-25T00:07:29.045Z,0
2017-08-25T00:08:28.757Z,0
2017-08-25T00:09:29.018Z,0
2017-08-25T00:10:28.686Z,0
2017-08-25T00:11:28.998Z,0
2017-08-25T00:12:28.342Z,0
2017-08-25T00:13:28.978Z,0
2017-08-25T00:14:28.648Z,0
2017-08-25T00:15:28.634Z,0
2017-08-25T00:16:29.258Z,0
2017-08-25T00:17:28.934Z,0
2017-08-25T00:18:28.653Z,0
2017-08-25T00:19:28.587Z,0
2017-08-25T00:20:28.902Z,0
2017-08-25T00:21:28.615Z,0
2017-08-25T00:22:28.271Z,0
2017-08-25T00:23:28.904Z,0
2017-08-25T00:24:28.246Z,0
2017-08-25T00:25:28.563Z,0
2017-08-25T00:26:29.156Z,0
2017-08-25T00:27:28.502Z,0
2017-08-25T00:28:29.137Z,0
2017-08-25T00:29:28.797Z,0
2017-08-25T00:30:28.804Z,0
2017-08-25T00:31:28.776Z,0
2017-08-25T00:32:28.444Z,0
2017-08-25T00:33:28.431Z,0
2017-08-25T00:34:29.075Z,0
2017-08-25T00:35:28.744Z,0
2017-08-25T00:36:28.717Z,0
2017-08-25T00:37:29.039Z,0
2017-08-25T00:38:28.438Z,0
2017-08-25T00:39:28.693Z,0
2017-08-25T00:40:28.386Z,0
2017-08-25T00:41:28.665Z,0
2017-08-25T00:42:28.653Z,0
2017-08-25T00:43:28.054Z,0
2017-08-25T00:44:28.310Z,0
2017-08-25T00:45:28.627Z,0
2017-08-25T00:46:28.929Z,0
2017-08-25T00:47:28.277Z,0
2017-08-25T00:48:28.266Z,0
2017-08-25T00:49:28.276Z,0
2017-08-25T00:50:28.572Z,0
2017-08-25T00:51:28.879Z,0
2017-08-25T00:52:28.224Z,0
2017-08-25T00:53:28.217Z,0
2017-08-25T00:54:27.889Z,0
2017-08-25T00:55:27.871Z,0
2017-08-25T00:56:28.495Z,0
2017-08-25T00:57:28.489Z,0
2017-08-25T00:58:28.152Z,0
2017-08-25T00:59:28.140Z,0
2017-08-25T01:00:28.132Z,0
2017-08-25T01:01:28.124Z,0
2017-08-25T01:02:28.108Z,0
2017-08-25T01:03:27.776Z,0
2017-08-25T01:04:27.766Z,0
2017-08-25T01:05:28.400Z,0
2017-08-25T01:06:28.384Z,0
2017-08-25T01:07:28.047Z,0
2017-08-25T01:08:28.044Z,0
2017-08-25T01:09:28.030Z,0
2017-08-25T01:10:28.361Z,0
2017-08-25T01:11:27.686Z,0
2017-08-25T01:12:28.013Z,0
2017-08-25T01:13:27.998Z,0
2017-08-25T01:14:28.666Z,0
2017-08-25T01:15:28.285Z,0
2017-08-25T01:16:27.628Z,0
2017-08-25T01:17:28.580Z,0
2017-08-25T01:18:27.933Z,0
2017-08-25T01:19:27.643Z,0
2017-08-25T01:20:27.907Z,0
2017-08-25T01:21:28.536Z,0
2017-08-25T01:22:27.882Z,0
2017-08-25T01:23:27.554Z,0
2017-08-25T01:24:27.535Z,0
2017-08-25T01:25:28.492Z,0
2017-08-25T01:26:28.161Z,0
2017-08-25T01:27:27.826Z,0
2017-08-25T01:28:27.814Z,0
2017-08-25T01:29:27.482Z,0
2017-08-25T01:30:27.801Z,0
2017-08-25T01:31:28.414Z,0
2017-08-25T01:32:27.771Z,0
2017-08-25T01:33:27.770Z,0
2017-08-25T01:34:28.387Z,0
2017-08-25T01:35:28.050Z,0
2017-08-25T01:36:28.368Z,0
2017-08-25T01:37:28.034Z,0
2017-08-25T01:38:28.016Z,0
2017-08-25T01:39:27.682Z,0
2017-08-25T01:40:27.676Z,0
2017-08-25T01:41:27.662Z,0
2017-08-25T01:42:27.647Z,0
2017-08-25T01:43:27.319Z,0
2017-08-25T01:44:27.309Z,0
2017-08-25T01:45:27.622Z,0
2017-08-25T01:46:27.605Z,0
2017-08-25T01:47:27.916Z,0
2017-08-25T01:48:27.576Z,0
2017-08-25T01:49:27.624Z,0
2017-08-25T01:50:27.554Z,0
2017-08-25T01:51:27.874Z,0
2017-08-25T01:52:27.536Z,0
2017-08-25T01:53:27.529Z,0
2017-08-25T01:54:27.833Z,0
2017-08-25T01:55:27.502Z,0
2017-08-25T01:56:27.489Z,0
2017-08-25T01:57:27.896Z,0
2017-08-25T01:58:27.465Z,0
2017-08-25T01:59:28.092Z,0
2017-08-25T02:00:27.440Z,0
2017-08-25T02:01:27.755Z,0
2017-08-25T02:02:28.059Z,0
2017-08-25T02:03:27.429Z,0
2017-08-25T02:04:28.034Z,0
2017-08-25T02:05:27.060Z,0
2017-08-25T02:06:27.685Z,0
2017-08-25T02:07:27.698Z,0
2017-08-25T02:08:27.348Z,0
2017-08-25T02:09:27.356Z,0
2017-08-25T02:10:27.969Z,0
2017-08-25T02:11:27.651Z,0
2017-08-25T02:12:26.987Z,0
2017-08-25T02:13:27.931Z,0
2017-08-25T02:14:27.917Z,0
2017-08-25T02:15:27.604Z,0
2017-08-25T02:16:27.257Z,0
2017-08-25T02:17:27.889Z,0
2017-08-25T02:18:27.229Z,0
2017-08-25T02:19:27.217Z,0
2017-08-25T02:20:27.573Z,0
2017-08-25T02:21:27.194Z,0
2017-08-25T02:22:27.181Z,0
2017-08-25T02:23:27.506Z,0
2017-08-25T02:24:27.155Z,0
2017-08-25T02:25:27.146Z,0
2017-08-25T02:26:27.134Z,0
2017-08-25T02:27:27.441Z,0
2017-08-25T02:28:27.104Z,0
2017-08-25T02:29:27.438Z,0
2017-08-25T02:30:27.805Z,0
2017-08-25T02:31:27.421Z,0
2017-08-25T02:32:27.076Z,0
2017-08-25T02:33:27.053Z,0
2017-08-25T02:34:27.377Z,0
2017-08-25T02:35:27.354Z,0
2017-08-25T02:36:27.663Z,0
2017-08-25T02:37:27.329Z,0
2017-08-25T02:38:27.319Z,0
2017-08-25T02:39:27.651Z,0
2017-08-25T02:40:26.967Z,0
2017-08-25T02:41:26.636Z,0
2017-08-25T02:42:26.938Z,0
2017-08-25T02:43:26.929Z,0
2017-08-25T02:44:27.243Z,0
2017-08-25T02:45:26.913Z,0
2017-08-25T02:46:26.897Z,0
2017-08-25T02:47:27.536Z,0
2017-08-25T02:48:26.864Z,0
2017-08-25T02:49:26.536Z,0
2017-08-25T02:50:27.553Z,0
2017-08-25T02:51:26.507Z,0
2017-08-25T02:52:26.823Z,0
2017-08-25T02:53:26.808Z,0
2017-08-25T02:54:26.476Z,0
2017-08-25T02:55:26.782Z,0
2017-08-25T02:56:26.768Z,0
2017-08-25T02:57:26.759Z,0
2017-08-25T02:58:27.066Z,0
2017-08-25T02:59:27.052Z,0
2017-08-25T03:00:26.723Z,0
2017-08-25T03:01:27.027Z,0
2017-08-25T03:02:26.694Z,0
2017-08-25T03:03:27.008Z,0
2017-08-25T03:04:26.989Z,0
2017-08-25T03:05:26.975Z,0
2017-08-25T03:06:26.996Z,0
2017-08-25T03:07:26.959Z,0
2017-08-25T03:08:27.262Z,0
2017-08-25T03:09:27.254Z,0
2017-08-25T03:10:26.271Z,0
2017-08-25T03:11:26.901Z,0
2017-08-25T03:12:26.908Z,0
2017-08-25T03:13:26.557Z,0
2017-08-25T03:14:26.229Z,0
2017-08-25T03:15:26.216Z,0
2017-08-25T03:16:26.521Z,0
2017-08-25T03:17:26.836Z,0
2017-08-25T03:18:26.507Z,0
2017-08-25T03:19:26.488Z,0
2017-08-25T03:20:26.472Z,0
2017-08-25T03:21:27.155Z,0
2017-08-25T03:22:26.772Z,0
2017-08-25T03:23:27.075Z,0
2017-08-25T03:24:26.747Z,0
2017-08-25T03:25:26.407Z,0
2017-08-25T03:26:26.769Z,0
2017-08-25T03:27:26.063Z,0
2017-08-25T03:28:26.694Z,0
2017-08-25T03:29:26.999Z,0
2017-08-25T03:30:27.008Z,0
2017-08-25T03:31:26.011Z,0
2017-08-25T03:32:26.001Z,0
2017-08-25T03:33:25.989Z,0
2017-08-25T03:34:26.294Z,0
2017-08-25T03:35:26.279Z,0
2017-08-25T03:36:26.272Z,0
2017-08-25T03:37:26.584Z,0
2017-08-25T03:38:26.889Z,0
2017-08-25T03:39:26.873Z,0
2017-08-25T03:40:25.899Z,0
2017-08-25T03:41:26.528Z,0
2017-08-25T03:42:26.846Z,0
2017-08-25T03:43:25.863Z,0
2017-08-25T03:44:26.171Z,0
2017-08-25T03:45:26.164Z,0
2017-08-25T03:46:26.145Z,0
2017-08-25T03:47:26.460Z,0
2017-08-25T03:48:26.123Z,0
2017-08-25T03:49:26.446Z,0
2017-08-25T03:50:26.408Z,0
2017-08-25T03:51:26.721Z,0
2017-08-25T03:52:26.071Z,0
2017-08-25T03:53:26.056Z,0
2017-08-25T03:54:26.354Z,0
2017-08-25T03:55:26.031Z,0
2017-08-25T03:56:26.333Z,0
2017-08-25T03:57:26.373Z,0
2017-08-25T03:58:26.309Z,0
2017-08-25T03:59:26.302Z,0
2017-08-25T04:00:26.288Z,0
2017-08-25T04:01:26.297Z,0
2017-08-25T04:02:25.940Z,0
2017-08-25T04:03:26.574Z,0
2017-08-25T04:04:26.233Z,4
2017-08-25T04:05:26.541Z,4
2017-08-25T04:06:25.886Z,4
2017-08-25T04:07:26.241Z,0
2017-08-25T04:08:25.865Z,4
2017-08-25T04:09:25.849Z,8
2017-08-25T04:10:26.154Z,4
2017-08-25T04:11:26.146Z,8
2017-08-25T04:12:26.453Z,8
2017-08-25T04:13:26.436Z,8
2017-08-25T04:14:25.780Z,8
2017-08-25T04:15:25.451Z,12
2017-08-25T04:16:25.752Z,12
2017-08-25T04:17:25.741Z,16
2017-08-25T04:18:26.371Z,20
2017-08-25T04:19:25.716Z,24
2017-08-25T04:20:25.700Z,28
2017-08-25T04:21:26.348Z,32
2017-08-25T04:22:25.727Z,32
2017-08-25T04:23:25.671Z,40
2017-08-25T04:24:25.975Z,44
2017-08-25T04:25:25.635Z,44
2017-08-25T04:26:25.304Z,52
2017-08-25T04:27:25.608Z,56
2017-08-25T04:28:25.272Z,60
2017-08-25T04:29:25.581Z,64
2017-08-25T04:30:25.889Z,76
2017-08-25T04:31:25.888Z,80
2017-08-25T04:32:25.590Z,88
2017-08-25T04:33:25.860Z,96
2017-08-25T04:34:25.197Z,108
2017-08-25T04:35:25.822Z,124
2017-08-25T04:36:25.811Z,140
2017-08-25T04:37:25.486Z,160
2017-08-25T04:38:26.103Z,180
2017-08-25T04:39:25.805Z,200
2017-08-25T04:40:25.758Z,220
2017-08-25T04:41:25.100Z,244
2017-08-25T04:42:25.412Z,260
2017-08-25T04:43:25.072Z,280
2017-08-25T04:44:25.716Z,300
2017-08-25T04:45:25.385Z,320
2017-08-25T04:46:26.009Z,344
2017-08-25T04:47:25.995Z,360
2017-08-25T04:48:25.329Z,380
2017-08-25T04:49:25.324Z,392
2017-08-25T04:50:25.629Z,412
2017-08-25T04:51:25.318Z,436
2017-08-25T04:52:25.601Z,464
2017-08-25T04:53:24.942Z,500
2017-08-25T04:54:25.895Z,544
2017-08-25T04:55:25.559Z,592
2017-08-25T04:56:25.550Z,644
2017-08-25T04:57:24.892Z,692
2017-08-25T04:58:25.521Z,744
2017-08-25T04:59:25.187Z,796
2017-08-25T05:00:24.849Z,848
2017-08-25T05:01:25.179Z,888
2017-08-25T05:02:25.150Z,916
2017-08-25T05:03:25.159Z,948
2017-08-25T05:04:25.119Z,984
2017-08-25T05:05:25.103Z,1012
2017-08-25T05:06:25.092Z,1036
2017-08-25T05:07:25.722Z,1052
2017-08-25T05:08:25.061Z,1052
2017-08-25T05:09:25.417Z,1044
2017-08-25T05:10:25.688Z,1036
2017-08-25T05:11:25.666Z,1044
2017-08-25T05:12:25.336Z,1048
2017-08-25T05:13:25.325Z,1068
2017-08-25T05:14:25.309Z,1088
2017-08-25T05:15:25.291Z,1108
2017-08-25T05:16:25.284Z,1148
2017-08-25T05:17:24.963Z,1184
2017-08-25T05:18:24.933Z,1220
2017-08-25T05:19:25.242Z,1248
2017-08-25T05:20:25.241Z,1284
2017-08-25T05:21:25.544Z,1324
2017-08-25T05:22:24.887Z,1352
2017-08-25T05:23:25.199Z,1384
2017-08-25T05:24:24.859Z,1408
2017-08-25T05:25:25.510Z,1432
2017-08-25T05:26:25.168Z,1464
2017-08-25T05:27:24.499Z,1500
2017-08-25T05:28:25.143Z,1548
2017-08-25T05:29:25.120Z,1596
2017-08-25T05:30:24.777Z,1636
2017-08-25T05:31:25.087Z,1692
2017-08-25T05:32:24.756Z,1760
2017-08-25T05:33:24.744Z,1840
2017-08-25T05:34:25.048Z,1892
2017-08-25T05:35:25.035Z,1940
2017-08-25T05:36:25.017Z,1992
2017-08-25T05:37:25.339Z,2028
2017-08-25T05:38:25.004Z,2040
2017-08-25T05:39:24.660Z,2052
2017-08-25T05:40:24.330Z,2064
2017-08-25T05:41:24.958Z,2088
2017-08-25T05:42:24.627Z,2132
2017-08-25T05:43:24.294Z,2180
2017-08-25T05:44:24.929Z,2232
2017-08-25T05:45:24.582Z,2288
2017-08-25T05:46:24.899Z,2340
2017-08-25T05:47:24.565Z,2384
2017-08-25T05:48:24.869Z,2396
2017-08-25T05:49:24.862Z,2376
2017-08-25T05:50:24.524Z,2328
2017-08-25T05:51:24.833Z,2256
2017-08-25T05:52:24.507Z,2188
2017-08-25T05:53:25.128Z,2124
2017-08-25T05:54:24.475Z,2084
2017-08-25T05:55:24.790Z,2068
2017-08-25T05:56:24.453Z,2084
2017-08-25T05:57:24.447Z,2100
2017-08-25T05:58:24.981Z,2120
2017-08-25T05:59:24.426Z,2136
2017-08-25T06:00:24.720Z,2196
2017-08-25T06:01:24.392Z,2256
2017-08-25T06:02:24.378Z,2300
2017-08-25T06:03:24.052Z,2332
2017-08-25T06:04:24.358Z,2396
2017-08-25T06:05:24.346Z,2492
2017-08-25T06:06:24.333Z,2596
2017-08-25T06:07:24.963Z,2696
2017-08-25T06:08:24.630Z,2796
2017-08-25T06:09:24.294Z,2884
2017-08-25T06:10:24.608Z,2964
2017-08-25T06:11:24.279Z,3036
2017-08-25T06:12:24.262Z,3076
2017-08-25T06:13:24.249Z,3100
2017-08-25T06:14:24.567Z,3092
2017-08-25T06:15:24.543Z,3076
2017-08-25T06:16:24.212Z,3040
2017-08-25T06:17:24.844Z,3020
2017-08-25T06:18:24.190Z,2988
2017-08-25T06:19:24.825Z,2952
2017-08-25T06:20:24.165Z,2904
2017-08-25T06:21:24.796Z,2812
2017-08-25T06:22:24.142Z,2740
2017-08-25T06:23:24.135Z,2676
2017-08-25T06:24:24.123Z,2664
2017-08-25T06:25:24.112Z,2628
2017-08-25T06:26:24.740Z,2620
2017-08-25T06:27:24.080Z,2632
2017-08-25T06:28:23.753Z,2704
2017-08-25T06:29:23.787Z,2776
2017-08-25T06:30:24.385Z,2860
2017-08-25T06:31:24.356Z,2972
2017-08-25T06:32:24.666Z,3064
2017-08-25T06:33:24.016Z,3116
2017-08-25T06:34:24.007Z,3160
2017-08-25T06:35:24.031Z,3268
2017-08-25T06:36:24.371Z,3284
2017-08-25T06:37:23.649Z,3256
2017-08-25T06:38:24.276Z,3240
2017-08-25T06:39:24.156Z,3248
2017-08-25T06:40:23.935Z,3252
2017-08-25T06:41:23.607Z,3240
2017-08-25T06:42:24.233Z,3256
2017-08-25T06:43:23.908Z,3312
2017-08-25T06:44:23.571Z,3324
2017-08-25T06:45:23.882Z,3336
2017-08-25T06:46:24.191Z,3368
2017-08-25T06:47:23.855Z,3452
2017-08-25T06:48:23.855Z,3600
2017-08-25T06:49:24.157Z,3748
2017-08-25T06:50:24.470Z,3816
2017-08-25T06:51:24.468Z,3844
2017-08-25T06:52:23.801Z,3776
2017-08-25T06:53:24.436Z,3700
2017-08-25T06:54:23.791Z,3644
2017-08-25T06:55:23.449Z,3608
2017-08-25T06:56:24.405Z,3592
2017-08-25T06:57:24.383Z,3632
2017-08-25T06:58:23.735Z,3624
2017-08-25T06:59:24.377Z,3540
2017-08-25T07:00:23.714Z,3424
2017-08-25T07:01:24.346Z,3392
2017-08-25T07:02:24.013Z,3332
2017-08-25T07:03:23.681Z,3324
2017-08-25T07:04:23.996Z,3340
2017-08-25T07:05:23.985Z,3352
2017-08-25T07:06:23.649Z,3408
2017-08-25T07:07:23.682Z,3452
2017-08-25T07:08:23.944Z,3512
2017-08-25T07:09:23.613Z,3612
2017-08-25T07:10:23.608Z,3684
2017-08-25T07:11:23.915Z,3760
2017-08-25T07:12:23.581Z,3872
2017-08-25T07:13:23.602Z,3972
2017-08-25T07:14:23.887Z,4096
2017-08-25T07:15:23.879Z,4180
2017-08-25T07:16:24.185Z,4248
2017-08-25T07:17:24.051Z,4272
2017-08-25T07:18:23.549Z,4380
2017-08-25T07:19:23.509Z,4496
2017-08-25T07:20:23.509Z,4692
2017-08-25T07:21:23.812Z,4856
2017-08-25T07:22:23.506Z,4872
2017-08-25T07:23:23.798Z,4980
2017-08-25T07:24:23.787Z,5252
2017-08-25T07:25:24.089Z,5560
2017-08-25T07:26:23.765Z,5820
2017-08-25T07:27:23.432Z,6104
2017-08-25T07:28:23.091Z,6420
2017-08-25T07:29:23.408Z,6584
2017-08-25T07:30:23.764Z,6616
2017-08-25T07:31:24.032Z,6716
2017-08-25T07:32:23.058Z,6820
2017-08-25T07:33:23.364Z,6980
2017-08-25T07:34:23.034Z,7124
2017-08-25T07:35:23.670Z,7192
2017-08-25T07:36:23.663Z,7156
2017-08-25T07:37:23.323Z,7068
2017-08-25T07:38:22.996Z,7052
2017-08-25T07:39:23.640Z,7236
2017-08-25T07:40:23.300Z,7328
2017-08-25T07:41:23.930Z,7244
2017-08-25T07:42:23.596Z,6952
2017-08-25T07:43:22.947Z,6724
2017-08-25T07:44:23.261Z,6524
2017-08-25T07:45:23.568Z,6456
2017-08-25T07:46:22.928Z,6488
2017-08-25T07:47:23.230Z,6544
2017-08-25T07:48:23.556Z,6604
2017-08-25T07:49:23.213Z,6612
2017-08-25T07:50:23.530Z,6576
2017-08-25T07:51:23.194Z,6612
2017-08-25T07:52:23.835Z,6696
2017-08-25T07:53:23.176Z,6660
2017-08-25T07:54:23.167Z,6576
2017-08-25T07:55:23.806Z,6444
2017-08-25T07:56:23.149Z,6208
2017-08-25T07:57:23.461Z,5936
2017-08-25T07:58:23.972Z,5628
2017-08-25T07:59:23.443Z,5448
2017-08-25T08:00:23.437Z,5324
2017-08-25T08:01:23.744Z,5364
2017-08-25T08:02:23.100Z,5488
2017-08-25T08:03:23.086Z,5588
2017-08-25T08:04:23.082Z,5492
2017-08-25T08:05:23.733Z,5660
2017-08-25T08:06:23.376Z,5736
2017-08-25T08:07:23.368Z,5880
2017-08-25T08:08:23.379Z,5720
2017-08-25T08:09:23.683Z,5876
2017-08-25T08:10:23.032Z,5748
2017-08-25T08:11:22.694Z,6008
2017-08-25T08:12:23.005Z,6220
2017-08-25T08:13:23.339Z,6580
2017-08-25T08:14:23.633Z,8488
2017-08-25T08:15:23.307Z,10296
2017-08-25T08:16:22.977Z,7712
2017-08-25T08:17:23.612Z,7020
2017-08-25T08:18:22.634Z,6632
2017-08-25T08:19:22.949Z,7852
2017-08-25T08:20:22.939Z,8224
2017-08-25T08:21:22.930Z,7504
2017-08-25T08:22:23.257Z,7728
2017-08-25T08:23:23.555Z,8284
2017-08-25T08:24:23.236Z,12632
2017-08-25T08:25:23.213Z,13936
2017-08-25T08:26:22.895Z,13844
2017-08-25T08:27:23.202Z,14552
2017-08-25T08:28:23.189Z,13792
2017-08-25T08:29:23.194Z,15048
2017-08-25T08:30:22.533Z,13496
2017-08-25T08:31:22.847Z,10444
2017-08-25T08:32:22.844Z,9136
2017-08-25T08:33:23.150Z,9128
2017-08-25T08:34:22.498Z,9208
2017-08-25T08:35:23.139Z,9120
2017-08-25T08:36:22.806Z,9092
2017-08-25T08:37:22.799Z,8720
2017-08-25T08:38:23.431Z,8448
2017-08-25T08:39:22.797Z,8300
2017-08-25T08:40:22.775Z,8788
2017-08-25T08:41:22.450Z,8648
2017-08-25T08:42:23.084Z,8848
2017-08-25T08:43:23.070Z,9288
2017-08-25T08:44:22.748Z,9872
2017-08-25T08:45:23.374Z,10056
2017-08-25T08:46:23.049Z,10016
2017-08-25T08:47:23.044Z,10244
2017-08-25T08:48:22.713Z,10432
2017-08-25T08:49:22.397Z,10844
2017-08-25T08:50:23.021Z,11212
2017-08-25T08:51:22.689Z,11316
2017-08-25T08:52:22.685Z,11240
2017-08-25T08:53:22.690Z,11032
2017-08-25T08:54:23.316Z,10836
2017-08-25T08:55:22.662Z,10728
2017-08-25T08:56:22.976Z,10696
2017-08-25T08:57:22.328Z,10920
2017-08-25T08:58:22.645Z,11188
2017-08-25T08:59:22.631Z,11420
2017-08-25T09:00:22.632Z,11644
2017-08-25T09:01:22.942Z,11792
2017-08-25T09:02:22.301Z,11980
2017-08-25T09:03:22.607Z,12280
2017-08-25T09:04:22.919Z,12684
2017-08-25T09:05:22.911Z,12848
2017-08-25T09:06:22.906Z,12888
2017-08-25T09:07:22.581Z,13596
2017-08-25T09:08:22.582Z,12724
2017-08-25T09:09:22.247Z,12356
2017-08-25T09:10:22.242Z,12912
2017-08-25T09:11:22.879Z,12504
2017-08-25T09:12:22.545Z,10816
2017-08-25T09:13:22.862Z,10344
2017-08-25T09:14:22.849Z,10392
2017-08-25T09:15:22.851Z,9576
2017-08-25T09:16:23.162Z,9420
2017-08-25T09:17:22.519Z,9256
2017-08-25T09:18:22.849Z,9400
2017-08-25T09:19:22.501Z,9336
2017-08-25T09:20:22.818Z,9212
2017-08-25T09:21:22.487Z,9412
2017-08-25T09:22:22.482Z,9760
2017-08-25T09:23:22.797Z,9216
2017-08-25T09:24:22.473Z,8232
2017-08-25T09:25:22.784Z,7944
2017-08-25T09:26:22.788Z,7732
2017-08-25T09:27:22.775Z,7560
2017-08-25T09:28:23.092Z,7440
2017-08-25T09:29:22.760Z,7624
2017-08-25T09:30:22.452Z,7576
2017-08-25T09:31:22.425Z,7724
2017-08-25T09:32:22.739Z,8340
2017-08-25T09:33:22.729Z,9180
2017-08-25T09:34:22.404Z,9228
2017-08-25T09:35:22.397Z,9172
2017-08-25T09:36:22.718Z,8708
2017-08-25T09:37:22.387Z,8980
2017-08-25T09:38:22.393Z,9044
2017-08-25T09:39:22.706Z,8988
2017-08-25T09:40:22.368Z,8732
2017-08-25T09:41:22.674Z,8548
2017-08-25T09:42:22.348Z,8592
2017-08-25T09:43:22.701Z,8716
2017-08-25T09:44:22.340Z,8800
2017-08-25T09:45:22.333Z,8916
2017-08-25T09:46:22.322Z,9064
2017-08-25T09:47:22.634Z,9356
2017-08-25T09:48:22.310Z,9920
2017-08-25T09:49:21.985Z,10588
2017-08-25T09:50:22.296Z,9296
2017-08-25T09:51:21.966Z,9144
2017-08-25T09:52:22.280Z,9140
2017-08-25T09:53:22.919Z,9220
2017-08-25T09:54:22.267Z,9268
2017-08-25T09:55:22.259Z,9324
2017-08-25T09:56:22.579Z,9424
2017-08-25T09:57:22.571Z,9360
2017-08-25T09:58:22.764Z,9232
2017-08-25T09:59:22.553Z,9408
2017-08-25T10:00:22.227Z,11144
2017-08-25T10:01:22.220Z,11152
2017-08-25T10:02:21.895Z,13052
2017-08-25T10:03:22.214Z,12832
2017-08-25T10:04:22.842Z,10768
2017-08-25T10:05:22.515Z,10996
2017-08-25T10:06:22.520Z,11004
2017-08-25T10:07:22.186Z,10892
2017-08-25T10:08:22.184Z,10788
2017-08-25T10:09:22.169Z,10868
2017-08-25T10:10:22.488Z,10936
2017-08-25T10:11:22.157Z,10844
2017-08-25T10:12:22.790Z,10648
2017-08-25T10:13:22.465Z,10724
2017-08-25T10:14:22.820Z,10752
2017-08-25T10:15:22.455Z,10736
2017-08-25T10:16:22.126Z,10784
2017-08-25T10:17:21.796Z,10860
2017-08-25T10:18:22.115Z,10952
2017-08-25T10:19:22.425Z,10816
2017-08-25T10:20:22.102Z,10728
2017-08-25T10:21:22.414Z,10956
2017-08-25T10:22:22.084Z,11060
2017-08-25T10:23:22.405Z,11608
2017-08-25T10:24:22.072Z,11452
2017-08-25T10:25:22.389Z,11380
2017-08-25T10:26:22.385Z,11548
2017-08-25T10:27:22.056Z,11836
2017-08-25T10:28:22.724Z,12300
2017-08-25T10:29:22.045Z,11668
2017-08-25T10:30:22.046Z,12020
2017-08-25T10:31:22.353Z,12284
2017-08-25T10:32:21.716Z,12496
2017-08-25T10:33:22.333Z,12704
2017-08-25T10:34:22.332Z,14348
2017-08-25T10:35:22.323Z,14220
2017-08-25T10:36:22.003Z,13464
2017-08-25T10:37:22.312Z,12980
2017-08-25T10:38:22.309Z,12692
2017-08-25T10:39:21.981Z,12676
2017-08-25T10:40:21.985Z,13240
2017-08-25T10:41:21.651Z,14428
2017-08-25T10:42:22.283Z,13740
2017-08-25T10:43:21.962Z,13372
2017-08-25T10:44:22.275Z,13540
2017-08-25T10:45:22.267Z,13760
2017-08-25T10:46:21.945Z,14088
2017-08-25T10:47:22.582Z,13932
2017-08-25T10:48:21.941Z,13892
2017-08-25T10:49:22.589Z,13620
2017-08-25T10:50:22.566Z,13584
2017-08-25T10:51:21.916Z,13836
2017-08-25T10:52:21.913Z,14072
2017-08-25T10:53:21.914Z,14448
2017-08-25T10:54:22.219Z,14952
2017-08-25T10:55:21.898Z,16164
2017-08-25T10:56:21.889Z,16204
2017-08-25T10:57:21.884Z,17568
2017-08-25T10:58:21.875Z,22976
2017-08-25T10:59:22.517Z,29984
2017-08-25T11:00:22.192Z,27168
2017-08-25T11:01:22.190Z,29312
2017-08-25T11:02:22.549Z,30304
2017-08-25T11:03:22.187Z,23072
2017-08-25T11:04:22.169Z,21984
2017-08-25T11:05:21.534Z,27168
2017-08-25T11:06:21.850Z,33440
2017-08-25T11:07:21.841Z,35104
2017-08-25T11:08:21.833Z,39552
2017-08-25T11:09:21.840Z,48128
2017-08-25T11:10:22.155Z,57344
2017-08-25T11:11:22.152Z,60320
2017-08-25T11:12:21.830Z,62080
2017-08-25T11:13:21.819Z,60544
2017-08-25T11:14:22.144Z,63264
2017-08-25T11:15:22.465Z,63968
2017-08-25T11:16:21.815Z,49152
2017-08-25T11:17:22.166Z,51008
2017-08-25T11:18:22.457Z,46720
2017-08-25T11:19:22.138Z,42240
2017-08-25T11:20:21.812Z,54848
2017-08-25T11:21:21.812Z,55552
2017-08-25T11:22:21.816Z,54048
2017-08-25T11:23:21.819Z,62400
2017-08-25T11:24:21.814Z,61472
2017-08-25T11:25:22.212Z,57376
2017-08-25T11:26:21.812Z,58816
2017-08-25T11:27:22.143Z,60864
2017-08-25T11:28:22.135Z,55872
2017-08-25T11:29:22.137Z,57888
2017-08-25T11:30:21.820Z,57056
2017-08-25T11:31:22.166Z,59840
2017-08-25T11:32:22.142Z,66496
2017-08-25T11:33:22.142Z,65984
2017-08-25T11:34:22.158Z,65696
2017-08-25T11:35:22.471Z,65952
2017-08-25T11:36:22.479Z,63424
2017-08-25T11:37:22.155Z,64576
2017-08-25T11:38:22.489Z,63744
2017-08-25T11:39:22.486Z,66528
2017-08-25T11:40:22.164Z,60896
2017-08-25T11:41:22.182Z,61984
2017-08-25T11:42:22.489Z,63904
2017-08-25T11:43:22.179Z,65792
2017-08-25T11:44:21.929Z,70848
2017-08-25T11:45:21.865Z,73536
2017-08-25T11:46:22.191Z,72736
2017-08-25T11:47:21.887Z,67008
2017-08-25T11:48:21.876Z,61888
2017-08-25T11:49:22.201Z,51680
2017-08-25T11:50:22.207Z,58720
2017-08-25T11:51:22.212Z,59360
2017-08-25T11:52:22.215Z,54688
2017-08-25T11:53:22.218Z,57632
2017-08-25T11:54:22.250Z,57600
2017-08-25T11:55:22.226Z,60160
2017-08-25T11:56:22.229Z,58400
2017-08-25T11:57:21.593Z,68704
2017-08-25T11:58:21.802Z,68672
2017-08-25T11:59:21.647Z,56992
2017-08-25T12:00:22.248Z,52768
2017-08-25T12:01:21.930Z,51168
2017-08-25T12:02:22.261Z,60032
2017-08-25T12:03:22.615Z,59616
2017-08-25T12:04:21.955Z,55488
2017-08-25T12:05:21.627Z,55008
2017-08-25T12:06:22.283Z,60608
2017-08-25T12:07:22.602Z,61824
2017-08-25T12:08:21.971Z,74304
2017-08-25T12:09:22.290Z,71040
2017-08-25T12:10:21.978Z,74432
2017-08-25T12:11:22.298Z,67168
2017-08-25T12:12:21.670Z,64544
2017-08-25T12:13:22.315Z,62208
2017-08-25T12:14:21.679Z,65600
2017-08-25T12:15:22.321Z,62048
2017-08-25T12:16:22.327Z,59104
2017-08-25T12:17:22.024Z,55552
2017-08-25T12:18:22.332Z,60224
2017-08-25T12:19:22.391Z,67488
2017-08-25T12:20:22.672Z,63488
2017-08-25T12:21:22.350Z,64288
2017-08-25T12:22:22.034Z,57888
2017-08-25T12:23:22.357Z,53184
2017-08-25T12:24:22.055Z,59328
2017-08-25T12:25:22.045Z,57664
2017-08-25T12:26:22.081Z,55360
2017-08-25T12:27:22.714Z,48896
2017-08-25T12:28:22.383Z,46112
2017-08-25T12:29:22.386Z,40800
2017-08-25T12:30:22.075Z,35776
2017-08-25T12:31:22.726Z,46208
2017-08-25T12:32:21.759Z,48288
2017-08-25T12:33:22.080Z,50944
2017-08-25T12:34:22.089Z,48576
2017-08-25T12:35:22.441Z,52512
2017-08-25T12:36:22.418Z,54752
2017-08-25T12:37:22.097Z,61344
2017-08-25T12:38:22.107Z,66624
2017-08-25T12:39:22.433Z,64672
2017-08-25T12:40:22.437Z,66496
2017-08-25T12:41:22.120Z,62432
2017-08-25T12:42:22.119Z,63456
2017-08-25T12:43:22.772Z,59584
2017-08-25T12:44:22.461Z,58336
2017-08-25T12:45:22.132Z,52608
2017-08-25T12:46:22.466Z,52448
2017-08-25T12:47:22.137Z,49152
2017-08-25T12:48:22.465Z,50208
2017-08-25T12:49:22.470Z,50400
2017-08-25T12:50:22.472Z,55296
2017-08-25T12:51:22.806Z,51616
2017-08-25T12:52:22.164Z,52224
2017-08-25T12:53:22.806Z,49568
2017-08-25T12:54:22.544Z,51968
2017-08-25T12:55:22.184Z,54848
2017-08-25T12:56:22.180Z,56544
2017-08-25T12:57:21.858Z,57920
2017-08-25T12:58:22.505Z,54208
2017-08-25T12:59:22.531Z,50016
2017-08-25T13:00:22.832Z,60160
2017-08-25T13:01:22.194Z,53696
2017-08-25T13:02:22.520Z,47968
2017-08-25T13:03:22.195Z,48448
2017-08-25T13:04:22.208Z,43840
2017-08-25T13:05:22.218Z,49408
2017-08-25T13:06:22.210Z,56960
2017-08-25T13:07:22.537Z,52288
2017-08-25T13:08:22.217Z,60288
2017-08-25T13:09:22.222Z,48704
2017-08-25T13:10:22.551Z,54656
2017-08-25T13:11:22.550Z,46592
2017-08-25T13:12:22.557Z,42944
2017-08-25T13:13:21.916Z,46496
2017-08-25T13:14:22.249Z,45344
2017-08-25T13:15:22.887Z,43360
2017-08-25T13:16:22.246Z,38464
2017-08-25T13:17:22.893Z,35680
2017-08-25T13:18:21.940Z,42912
2017-08-25T13:19:22.262Z,27904
2017-08-25T13:20:22.256Z,28704
2017-08-25T13:21:22.599Z,39200
2017-08-25T13:22:22.268Z,43872
2017-08-25T13:23:21.950Z,35040
2017-08-25T13:24:22.271Z,39104
2017-08-25T13:25:22.597Z,43808
2017-08-25T13:26:22.280Z,45248
2017-08-25T13:27:21.967Z,41120
2017-08-25T13:28:22.281Z,42656
2017-08-25T13:29:22.606Z,40448
2017-08-25T13:30:22.290Z,48960
2017-08-25T13:31:22.674Z,45408
2017-08-25T13:32:22.295Z,40960
2017-08-25T13:33:22.322Z,41216
2017-08-25T13:34:22.352Z,42848
2017-08-25T13:35:22.956Z,44640
2017-08-25T13:36:21.995Z,43296
2017-08-25T13:37:22.638Z,47392